createdAt,value
2022-12-13T00:02:22.504Z,6.10
2022-12-13T00:07:27.832Z,6.00
2022-12-13T00:12:31.775Z,6.20
2022-12-13T00:17:35.874Z,5.90
2022-12-13T00:22:41.155Z,6.38
2022-12-13T00:27:45.054Z,6.18
2022-12-13T00:32:48.945Z,5.90
2022-12-13T00:37:54.227Z,6.40
2022-12-13T00:42:58.196Z,6.53
2022-12-13T00:48:02.307Z,6.50
2022-12-13T00:53:07.615Z,6.38
2022-12-13T00:58:11.495Z,6.18
2022-12-13T01:03:25.484Z,6.20
2022-12-13T01:08:31.962Z,6.83
2022-12-13T01:13:36.511Z,5.93
2022-12-13T01:18:40.927Z,6.15
2022-12-13T01:23:46.413Z,6.30
2022-12-13T01:28:50.594Z,6.13
2022-12-13T01:33:54.431Z,6.22
2022-12-13T01:38:59.698Z,6.03
2022-12-13T01:44:04.421Z,6.15
2022-12-13T01:49:20.114Z,4.87
2022-12-13T01:54:33.417Z,6.22
2022-12-13T01:59:39.580Z,6.65
2022-12-13T02:04:54.262Z,6.65
2022-12-13T02:10:01.713Z,6.50
2022-12-13T02:15:08.030Z,6.38
2022-12-13T02:20:47.385Z,5.95
2022-12-13T02:26:20.234Z,5.78
2022-12-13T02:31:31.203Z,6.25
2022-12-13T02:36:43.363Z,6.18
2022-12-13T02:41:50.822Z,6.30
2022-12-13T02:46:59.816Z,6.40
2022-12-13T02:52:04.117Z,6.53
2022-12-13T02:57:32.393Z,6.85
2022-12-13T03:03:00.998Z,6.20
2022-12-13T03:08:17.635Z,6.45
2022-12-13T03:13:39.265Z,6.75
2022-12-13T03:18:45.323Z,6.35
2022-12-13T03:23:49.255Z,7.53
2022-12-13T03:28:53.457Z,6.45
2022-12-13T03:33:58.917Z,6.43
2022-12-13T03:39:02.876Z,6.88
2022-12-13T03:44:08.137Z,7.10
2022-12-13T03:49:17.143Z,6.57
2022-12-13T03:54:21.421Z,9.07
2022-12-13T03:59:25.234Z,7.30
2022-12-13T04:04:30.601Z,6.45
2022-12-13T04:09:34.351Z,9.50
2022-12-13T04:14:38.229Z,7.03
2022-12-13T04:19:43.514Z,6.60
2022-12-13T04:24:47.346Z,7.20
2022-12-13T04:29:51.193Z,7.07
2022-12-13T04:35:00.935Z,7.70
2022-12-13T04:40:06.442Z,7.07
2022-12-13T04:45:11.545Z,5.23
2022-12-13T04:50:16.798Z,7.30
2022-12-13T04:55:20.735Z,9.05
2022-12-13T05:00:25.001Z,7.03
2022-12-13T05:05:30.456Z,9.80
2022-12-13T05:10:37.959Z,7.55
2022-12-13T05:15:42.179Z,10.65
2022-12-13T05:20:47.456Z,9.50
2022-12-13T05:25:51.602Z,7.38
2022-12-13T05:30:58.343Z,7.60
2022-12-13T05:36:04.030Z,9.63
2022-12-13T05:46:12.665Z,11.75
2022-12-13T05:51:18.180Z,5.67
2022-12-13T05:56:22.554Z,7.25
2022-12-13T06:01:27.401Z,5.68
2022-12-13T06:06:32.706Z,9.63
2022-12-13T06:11:36.695Z,10.80
2022-12-13T06:16:47.512Z,9.45
2022-12-13T06:21:54.853Z,7.72
2022-12-13T06:27:00.175Z,7.75
2022-12-13T06:32:04.716Z,9.43
2022-12-13T06:37:13.101Z,7.72
2022-12-13T06:42:21.429Z,8.30
2022-12-13T06:47:31.956Z,10.23
2022-12-13T06:52:37.983Z,12.48
2022-12-13T06:57:43.986Z,13.15
2022-12-13T07:02:53.864Z,13.87
2022-12-13T07:07:59.393Z,12.32
2022-12-13T07:13:04.361Z,8.25
2022-12-13T07:18:08.221Z,9.93
2022-12-13T07:23:14.092Z,13.48
2022-12-13T07:33:22.058Z,13.50
2022-12-13T07:38:27.620Z,13.23
2022-12-13T07:43:31.689Z,14.13
2022-12-13T07:48:35.891Z,12.43
2022-12-13T07:53:41.605Z,12.35
2022-12-13T08:03:50.090Z,11.65
2022-12-13T08:08:57.930Z,13.18
2022-12-13T08:14:01.930Z,12.38
2022-12-13T08:19:06.259Z,13.63
2022-12-13T08:24:15.684Z,13.05
2022-12-13T08:29:23.064Z,15.27
2022-12-13T08:34:37.912Z,13.48
2022-12-13T08:39:44.674Z,12.50
2022-12-13T08:44:50.209Z,14.43
2022-12-13T08:50:01.429Z,12.95
2022-12-13T08:55:09.400Z,12.73
2022-12-13T09:00:15.315Z,12.75
2022-12-13T09:05:32.396Z,12.98
2022-12-13T09:10:40.250Z,12.25
2022-12-13T09:15:45.958Z,8.90
2022-12-13T09:20:50.345Z,13.23
2022-12-13T09:26:05.435Z,13.20
2022-12-13T09:31:11.531Z,11.15
2022-12-13T09:36:17.112Z,12.02
2022-12-13T09:41:28.637Z,12.73
2022-12-13T09:46:44.943Z,12.48
2022-12-13T09:52:10.187Z,9.32
2022-12-13T09:57:32.758Z,9.02
2022-12-13T10:02:44.558Z,8.73
2022-12-13T10:07:48.439Z,9.25
2022-12-13T10:12:59.354Z,8.27
2022-12-13T10:18:04.620Z,9.30
2022-12-13T10:23:33.340Z,8.80
2022-12-13T10:28:34.919Z,9.65
2022-12-13T10:33:52.937Z,9.60
2022-12-13T10:38:56.972Z,9.25
2022-12-13T10:44:26.589Z,9.23
2022-12-13T10:49:36.556Z,9.38
2022-12-13T10:54:48.600Z,9.50
2022-12-13T10:59:54.237Z,8.73
2022-12-13T11:04:58.977Z,8.57
2022-12-13T11:10:25.197Z,8.93
2022-12-13T11:15:34.797Z,9.90
2022-12-13T11:20:39.492Z,10.35
2022-12-13T11:25:44.653Z,10.68
2022-12-13T11:30:54.246Z,13.47
2022-12-13T11:36:05.916Z,9.55
2022-12-13T11:41:31.342Z,10.32
2022-12-13T11:46:41.284Z,10.45
2022-12-13T11:51:49.090Z,11.88
2022-12-13T11:57:00.709Z,12.77
2022-12-13T12:02:16.901Z,11.20
2022-12-13T12:07:32.798Z,11.93
2022-12-13T12:12:38.102Z,10.95
2022-12-13T12:17:43.818Z,11.00
2022-12-13T12:22:56.438Z,9.80
2022-12-13T12:28:05.213Z,12.60
2022-12-13T12:33:17.438Z,9.80
2022-12-13T12:38:52.629Z,10.25
2022-12-13T12:44:01.046Z,9.98
2022-12-13T12:49:40.355Z,10.05
2022-12-13T12:54:52.391Z,9.07
2022-12-13T13:00:04.685Z,9.18
2022-12-13T13:05:16.528Z,10.00
2022-12-13T13:10:26.136Z,10.30
2022-12-13T13:15:56.299Z,11.05
2022-12-13T13:21:33.072Z,9.07
2022-12-13T13:26:39.187Z,9.32
2022-12-13T13:32:01.476Z,9.05
2022-12-13T13:37:28.937Z,9.32
2022-12-13T13:42:33.810Z,9.05
2022-12-13T13:47:40.606Z,8.10
2022-12-13T13:52:57.381Z,8.90
2022-12-13T13:58:40.985Z,9.77
2022-12-13T14:04:04.893Z,9.35
2022-12-13T14:09:25.396Z,9.30
2022-12-13T14:15:09.406Z,9.60
2022-12-13T14:20:43.021Z,8.02
2022-12-13T14:25:58.311Z,8.38
2022-12-13T14:31:02.402Z,8.17
2022-12-13T14:36:06.860Z,8.02
2022-12-13T14:41:18.239Z,9.27
2022-12-13T14:46:22.346Z,8.55
2022-12-13T14:51:33.824Z,8.15
2022-12-13T14:56:55.682Z,8.88
2022-12-13T15:02:02.667Z,8.60
2022-12-13T15:07:09.621Z,9.00
2022-12-13T15:12:24.442Z,8.63
2022-12-13T15:17:32.579Z,9.80
2022-12-13T15:22:45.360Z,9.75
2022-12-13T15:27:57.193Z,10.20
2022-12-13T15:33:05.080Z,10.55
2022-12-13T15:38:12.591Z,10.80
2022-12-13T15:43:20.369Z,11.48
2022-12-13T15:48:28.322Z,11.75
2022-12-13T15:53:35.559Z,14.25
2022-12-13T15:58:40.863Z,15.48
2022-12-13T16:03:47.044Z,13.70
2022-12-13T16:08:53.375Z,13.65
2022-12-13T16:14:40.107Z,13.55
2022-12-13T16:19:53.663Z,12.45
2022-12-13T16:24:57.636Z,14.02
2022-12-13T16:30:02.965Z,15.30
2022-12-13T16:35:08.019Z,15.75
2022-12-13T16:40:24.845Z,14.80
2022-12-13T16:45:41.608Z,17.17
2022-12-13T16:50:47.581Z,17.35
2022-12-13T16:56:01.438Z,15.40
2022-12-13T17:01:11.142Z,19.63
2022-12-13T17:06:16.523Z,20.90
2022-12-13T17:11:21.625Z,20.83
2022-12-13T17:16:26.956Z,21.55
2022-12-13T17:21:30.910Z,21.63
2022-12-13T17:26:35.206Z,22.77
2022-12-13T17:31:40.531Z,21.45
2022-12-13T17:36:44.872Z,22.38
2022-12-13T17:41:54.881Z,20.98
2022-12-13T17:47:01.192Z,23.65
2022-12-13T17:52:05.350Z,22.98
2022-12-13T17:57:11.832Z,24.17
2022-12-13T18:02:22.879Z,25.30
2022-12-13T18:07:26.854Z,24.50
2022-12-13T18:12:30.785Z,23.88
2022-12-13T18:18:09.531Z,26.45
2022-12-13T18:23:00.580Z,25.38
2022-12-13T18:28:04.868Z,26.48
2022-12-13T18:33:12.568Z,27.95
2022-12-13T18:38:16.553Z,27.95
2022-12-13T18:43:20.518Z,28.30
2022-12-13T18:48:26.242Z,29.85
2022-12-13T18:53:31.282Z,28.10
2022-12-13T18:58:36.283Z,19.30
2022-12-13T19:03:43.847Z,27.97
2022-12-13T19:08:49.413Z,29.75
2022-12-13T19:13:53.791Z,30.63
2022-12-13T19:18:59.186Z,30.85
2022-12-13T19:24:03.088Z,28.55
2022-12-13T19:29:07.083Z,27.15
2022-12-13T19:34:12.292Z,27.77
2022-12-13T19:39:16.213Z,20.95
2022-12-13T19:44:20.244Z,31.70
2022-12-13T19:49:25.577Z,33.42
2022-12-13T19:54:29.510Z,32.80
2022-12-13T19:59:33.333Z,36.95
2022-12-13T20:04:38.824Z,34.25
2022-12-13T20:09:42.715Z,33.70
2022-12-13T20:14:46.884Z,34.25
2022-12-13T20:19:52.257Z,33.28
2022-12-13T20:24:56.398Z,31.00
2022-12-13T20:30:00.342Z,30.08
2022-12-13T20:35:06.610Z,30.80
2022-12-13T20:40:11.678Z,28.05
2022-12-13T20:45:15.651Z,20.40
2022-12-13T20:50:20.907Z,29.70
2022-12-13T20:55:26.506Z,29.15
2022-12-13T21:00:31.168Z,28.27
2022-12-13T21:05:36.446Z,27.58
2022-12-13T21:10:41.387Z,28.73
2022-12-13T21:15:45.927Z,29.35
2022-12-13T21:20:57.348Z,29.45
2022-12-13T21:26:01.295Z,28.75
2022-12-13T21:31:07.275Z,28.63
2022-12-13T21:36:14.773Z,28.23
2022-12-13T21:41:18.696Z,29.77
2022-12-13T21:46:28.349Z,28.00
2022-12-13T21:51:48.443Z,27.30
2022-12-13T21:57:21.428Z,27.27
2022-12-13T22:02:25.385Z,26.65
2022-12-13T22:07:32.454Z,28.60
2022-12-13T22:12:37.562Z,27.27
2022-12-13T22:17:41.880Z,28.10
2022-12-13T22:22:48.629Z,26.52
2022-12-13T22:27:52.703Z,27.13
2022-12-13T22:32:56.572Z,27.13
2022-12-13T22:38:01.911Z,27.13
2022-12-13T22:43:05.773Z,27.85
2022-12-13T22:48:09.674Z,27.42
2022-12-13T22:53:14.882Z,28.05
2022-12-13T22:58:18.895Z,28.05
2022-12-13T23:03:22.815Z,27.98
2022-12-13T23:08:28.499Z,28.38
2022-12-13T23:13:32.674Z,27.88
2022-12-13T23:18:36.527Z,31.08
2022-12-13T23:23:42.081Z,30.77
2022-12-13T23:28:46.949Z,35.60
2022-12-13T23:33:51.261Z,39.70
2022-12-13T23:38:56.514Z,38.53
2022-12-13T23:44:01.057Z,41.58
2022-12-13T23:49:07.014Z,43.13
2022-12-13T23:54:16.536Z,45.67
2022-12-13T23:59:20.514Z,46.63
